createdAt,value
2019-02-27T00:00:52.310Z,7.64
2019-02-27T00:01:52.317Z,7.75
2019-02-27T00:02:53.764Z,7.58
2019-02-27T00:03:52.348Z,7.67
2019-02-27T00:04:52.353Z,7.60
2019-02-27T00:05:52.364Z,7.58
2019-02-27T00:06:52.376Z,7.57
2019-02-27T00:07:54.859Z,7.55
2019-02-27T00:08:52.398Z,7.43
2019-02-27T00:09:52.417Z,7.46
2019-02-27T00:10:52.474Z,7.48
2019-02-27T00:11:52.434Z,7.52
2019-02-27T00:12:52.568Z,7.46
2019-02-27T00:13:52.459Z,7.49
2019-02-27T00:14:52.471Z,7.48
2019-02-27T00:15:52.483Z,7.49
2019-02-27T00:16:52.494Z,7.49
2019-02-27T00:17:52.507Z,7.43
2019-02-27T00:18:53.721Z,7.42
2019-02-27T00:19:52.535Z,7.45
2019-02-27T00:20:52.539Z,7.46
2019-02-27T00:21:52.551Z,7.49
2019-02-27T00:22:52.564Z,7.49
2019-02-27T00:23:56.713Z,7.43
2019-02-27T00:24:52.585Z,7.43
2019-02-27T00:25:52.599Z,7.45
2019-02-27T00:26:52.615Z,7.39
2019-02-27T00:27:52.623Z,7.37
2019-02-27T00:28:55.954Z,7.28
2019-02-27T00:29:52.638Z,7.34
2019-02-27T00:30:52.646Z,7.31
2019-02-27T00:31:52.659Z,7.42
2019-02-27T00:32:52.674Z,7.32
2019-02-27T00:33:52.686Z,7.37
2019-02-27T00:34:52.697Z,7.31
2019-02-27T00:35:52.706Z,7.34
2019-02-27T00:36:52.715Z,7.34
2019-02-27T00:37:52.777Z,7.27
2019-02-27T00:38:52.746Z,7.20
2019-02-27T00:39:52.754Z,7.25
2019-02-27T00:40:52.765Z,7.25
2019-02-27T00:41:52.781Z,7.25
2019-02-27T00:42:54.445Z,7.28
2019-02-27T00:43:52.801Z,7.27
2019-02-27T00:44:52.808Z,7.17
2019-02-27T00:45:52.824Z,7.23
2019-02-27T00:46:52.838Z,7.23
2019-02-27T00:47:53.772Z,7.23
2019-02-27T00:48:52.860Z,7.24
2019-02-27T00:49:52.866Z,7.15
2019-02-27T00:50:52.887Z,7.13
2019-02-27T00:51:52.891Z,7.15
2019-02-27T00:52:52.909Z,7.15
2019-02-27T00:53:52.916Z,7.05
2019-02-27T00:54:52.927Z,7.12
2019-02-27T00:55:52.939Z,7.06
2019-02-27T00:56:52.954Z,7.05
2019-02-27T00:57:54.472Z,7.03
2019-02-27T00:58:52.974Z,6.97
2019-02-27T00:59:52.987Z,6.98
2019-02-27T01:00:52.997Z,7.06
2019-02-27T01:01:53.016Z,7.02
2019-02-27T01:02:53.671Z,7.02
2019-02-27T01:03:53.039Z,7.03
2019-02-27T01:04:53.048Z,7.03
2019-02-27T01:05:53.054Z,6.97
2019-02-27T01:06:53.064Z,6.99
2019-02-27T01:07:54.204Z,6.89
2019-02-27T01:08:53.089Z,6.95
2019-02-27T01:09:53.098Z,6.95
2019-02-27T01:10:53.111Z,6.95
2019-02-27T01:11:53.127Z,6.88
2019-02-27T01:12:53.136Z,6.88
2019-02-27T01:13:53.143Z,6.95
2019-02-27T01:14:53.155Z,6.89
2019-02-27T01:15:53.167Z,6.94
2019-02-27T01:16:53.180Z,6.85
2019-02-27T01:17:54.997Z,6.88
2019-02-27T01:18:53.209Z,6.95
2019-02-27T01:19:53.220Z,6.77
2019-02-27T01:20:53.251Z,6.87
2019-02-27T01:21:53.234Z,6.74
2019-02-27T01:22:53.252Z,6.74
2019-02-27T01:23:53.265Z,6.79
2019-02-27T01:24:53.273Z,6.77
2019-02-27T01:25:56.095Z,6.76
2019-02-27T01:26:53.294Z,6.77
2019-02-27T01:27:53.305Z,6.80
2019-02-27T01:28:53.319Z,6.73
2019-02-27T01:29:53.329Z,6.74
2019-02-27T01:30:53.345Z,6.70
2019-02-27T01:31:55.022Z,6.71
2019-02-27T01:32:53.372Z,6.69
2019-02-27T01:33:53.381Z,6.66
2019-02-27T01:34:53.383Z,6.66
2019-02-27T01:35:53.404Z,6.67
2019-02-27T01:36:57.592Z,6.74
2019-02-27T01:37:53.421Z,6.73
2019-02-27T01:38:53.435Z,6.69
2019-02-27T01:39:53.442Z,6.64
2019-02-27T01:40:53.461Z,6.69
2019-02-27T01:41:55.307Z,6.66
2019-02-27T01:42:53.481Z,6.64
2019-02-27T01:43:53.489Z,6.66
2019-02-27T01:44:53.498Z,6.62
2019-02-27T01:45:54.438Z,6.64
2019-02-27T01:46:54.699Z,6.58
2019-02-27T01:47:53.536Z,6.56
2019-02-27T01:48:53.550Z,6.56
2019-02-27T01:49:53.553Z,6.55
2019-02-27T01:50:55.325Z,6.49
2019-02-27T01:51:53.586Z,6.54
2019-02-27T01:52:53.591Z,6.54
2019-02-27T01:53:53.600Z,6.56
2019-02-27T01:54:53.620Z,6.52
2019-02-27T01:55:56.173Z,6.41
2019-02-27T01:56:53.636Z,6.55
2019-02-27T01:57:53.655Z,6.54
2019-02-27T01:58:53.658Z,6.61
2019-02-27T01:59:53.668Z,6.52
2019-02-27T02:00:56.081Z,6.59
2019-02-27T02:01:53.689Z,6.55
2019-02-27T02:02:53.702Z,6.58
2019-02-27T02:03:53.723Z,6.55
2019-02-27T02:04:53.903Z,6.52
2019-02-27T02:05:53.739Z,6.49
2019-02-27T02:06:53.747Z,6.56
2019-02-27T02:07:53.761Z,6.48
2019-02-27T02:08:53.772Z,6.43
2019-02-27T02:09:55.036Z,6.54
2019-02-27T02:10:53.791Z,6.49
2019-02-27T02:11:53.805Z,6.48
2019-02-27T02:12:53.918Z,6.43
2019-02-27T02:13:53.832Z,6.41
2019-02-27T02:14:54.300Z,6.44
2019-02-27T02:15:53.851Z,6.48
2019-02-27T02:16:53.862Z,6.46
2019-02-27T02:17:53.875Z,6.38
2019-02-27T02:18:53.887Z,6.41
2019-02-27T02:19:54.702Z,6.36
2019-02-27T02:20:53.910Z,6.41
2019-02-27T02:21:53.922Z,6.34
2019-02-27T02:22:53.928Z,6.30
2019-02-27T02:23:53.950Z,6.33
2019-02-27T02:24:54.252Z,6.34
2019-02-27T02:25:53.964Z,6.30
2019-02-27T02:26:53.974Z,6.31
2019-02-27T02:27:53.986Z,6.37
2019-02-27T02:28:53.998Z,6.28
2019-02-27T02:29:54.014Z,6.31
2019-02-27T02:30:54.022Z,6.30
2019-02-27T02:31:54.031Z,6.18
2019-02-27T02:32:54.042Z,6.19
2019-02-27T02:33:54.053Z,6.12
2019-02-27T02:34:54.068Z,6.17
2019-02-27T02:35:54.077Z,6.21
2019-02-27T02:36:54.092Z,6.22
2019-02-27T02:37:54.102Z,6.14
2019-02-27T02:38:54.109Z,6.03
2019-02-27T02:39:55.238Z,6.14
2019-02-27T02:40:54.149Z,6.14
2019-02-27T02:41:54.145Z,6.12
2019-02-27T02:42:54.158Z,6.14
2019-02-27T02:43:54.165Z,6.15
2019-02-27T02:44:57.505Z,6.18
2019-02-27T02:45:54.183Z,6.17
2019-02-27T02:46:54.205Z,6.17
2019-02-27T02:47:55.871Z,6.17
2019-02-27T02:48:54.217Z,6.04
2019-02-27T02:49:54.233Z,6.03
2019-02-27T02:50:55.046Z,6.06
2019-02-27T02:51:54.250Z,6.03
2019-02-27T02:52:54.262Z,6.01
2019-02-27T02:54:00.394Z,6.06
2019-02-27T02:54:54.293Z,6.08
2019-02-27T02:55:54.298Z,6.01
2019-02-27T02:57:00.210Z,6.06
2019-02-27T02:57:54.321Z,6.08
2019-02-27T02:58:54.339Z,6.11
2019-02-27T02:59:59.405Z,6.14
2019-02-27T03:00:54.351Z,6.12
2019-02-27T03:01:54.364Z,6.14
2019-02-27T03:02:57.494Z,6.19
2019-02-27T03:03:54.384Z,6.14
2019-02-27T03:04:54.403Z,6.14
2019-02-27T03:05:58.588Z,6.15
2019-02-27T03:06:54.425Z,6.18
2019-02-27T03:07:54.432Z,6.18
2019-02-27T03:08:55.318Z,6.15
2019-02-27T03:09:54.458Z,6.17
2019-02-27T03:10:54.482Z,6.08
2019-02-27T03:11:55.629Z,6.03
2019-02-27T03:12:54.489Z,6.03
2019-02-27T03:13:54.497Z,6.09
2019-02-27T03:14:54.653Z,6.03
2019-02-27T03:15:54.519Z,6.11
2019-02-27T03:16:54.531Z,6.06
2019-02-27T03:17:55.091Z,6.09
2019-02-27T03:18:54.554Z,6.00
2019-02-27T03:19:54.561Z,6.06
2019-02-27T03:20:54.573Z,5.96
2019-02-27T03:21:54.587Z,5.99
2019-02-27T03:22:54.598Z,6.11
2019-02-27T03:23:54.608Z,5.97
2019-02-27T03:24:54.617Z,5.96
2019-02-27T03:25:54.626Z,5.85
2019-02-27T03:26:54.640Z,5.81
2019-02-27T03:27:54.655Z,5.82
2019-02-27T03:28:54.659Z,5.89
2019-02-27T03:29:54.674Z,5.82
2019-02-27T03:30:54.687Z,5.85
2019-02-27T03:32:00.038Z,5.94
2019-02-27T03:32:54.739Z,5.96
2019-02-27T03:34:05.387Z,5.83
2019-02-27T03:34:54.727Z,5.78
2019-02-27T03:35:54.737Z,5.89
2019-02-27T03:36:54.752Z,5.85
2019-02-27T03:37:54.764Z,5.86
2019-02-27T03:38:55.889Z,5.78
2019-02-27T03:39:54.784Z,5.81
2019-02-27T03:40:54.797Z,5.79
2019-02-27T03:41:58.499Z,5.76
2019-02-27T03:42:54.819Z,5.79
2019-02-27T03:43:54.826Z,5.76
2019-02-27T03:44:56.172Z,5.78
2019-02-27T03:45:54.848Z,5.78
2019-02-27T03:46:54.947Z,5.65
2019-02-27T03:47:54.872Z,5.68
2019-02-27T03:48:54.886Z,5.71
2019-02-27T03:49:54.890Z,5.68
2019-02-27T03:50:54.900Z,5.60
2019-02-27T03:51:59.858Z,5.65
2019-02-27T03:52:54.926Z,5.68
2019-02-27T03:53:54.941Z,5.61
2019-02-27T03:54:58.052Z,5.71
2019-02-27T03:55:54.960Z,5.68
2019-02-27T03:56:54.974Z,5.72
2019-02-27T03:57:56.028Z,5.65
2019-02-27T03:58:54.991Z,5.64
2019-02-27T03:59:55.001Z,5.64
2019-02-27T04:00:55.015Z,5.64
2019-02-27T04:01:55.024Z,5.67
2019-02-27T04:02:55.032Z,5.60
2019-02-27T04:03:55.404Z,5.57
2019-02-27T04:04:55.069Z,5.56
2019-02-27T04:05:55.062Z,5.56
2019-02-27T04:06:56.473Z,5.58
2019-02-27T04:07:55.093Z,5.60
2019-02-27T04:08:55.099Z,5.61
2019-02-27T04:09:56.371Z,5.46
2019-02-27T04:10:55.116Z,5.56
2019-02-27T04:11:55.126Z,5.57
2019-02-27T04:12:55.139Z,5.57
2019-02-27T04:13:55.153Z,5.51
2019-02-27T04:14:55.162Z,5.53
2019-02-27T04:15:55.187Z,5.39
2019-02-27T04:16:55.187Z,5.48
2019-02-27T04:17:55.194Z,5.46
2019-02-27T04:18:55.203Z,5.45
2019-02-27T04:19:55.534Z,5.58
2019-02-27T04:20:55.231Z,5.43
2019-02-27T04:22:00.451Z,5.46
2019-02-27T04:22:55.247Z,5.57
2019-02-27T04:23:55.261Z,5.53
2019-02-27T04:24:56.849Z,5.51
2019-02-27T04:25:55.280Z,5.57
2019-02-27T04:26:55.289Z,5.53
2019-02-27T04:27:56.257Z,5.46
2019-02-27T04:28:55.315Z,5.57
2019-02-27T04:29:55.322Z,5.43
2019-02-27T04:30:55.331Z,5.39
2019-02-27T04:31:55.372Z,5.53
2019-02-27T04:32:55.358Z,5.54
2019-02-27T04:33:59.830Z,5.39
2019-02-27T04:34:55.404Z,5.40
2019-02-27T04:35:55.386Z,5.40
2019-02-27T04:36:55.405Z,5.31
2019-02-27T04:37:55.409Z,5.27
2019-02-27T04:38:55.420Z,5.35
2019-02-27T04:39:55.431Z,5.39
2019-02-27T04:40:55.441Z,5.30
2019-02-27T04:41:55.452Z,5.28
2019-02-27T04:42:57.004Z,5.28
2019-02-27T04:43:55.475Z,5.27
2019-02-27T04:44:55.488Z,5.28
2019-02-27T04:45:55.494Z,5.33
2019-02-27T04:46:55.645Z,5.33
2019-02-27T04:47:55.514Z,5.21
2019-02-27T04:48:55.531Z,5.25
2019-02-27T04:49:55.540Z,5.15
2019-02-27T04:50:55.550Z,5.20
2019-02-27T04:51:55.564Z,5.25
2019-02-27T04:52:57.638Z,5.28
2019-02-27T04:53:55.582Z,5.25
2019-02-27T04:54:55.592Z,5.25
2019-02-27T04:55:55.604Z,5.27
2019-02-27T04:56:57.554Z,5.22
2019-02-27T04:57:55.622Z,5.27
2019-02-27T04:58:55.642Z,5.24
2019-02-27T04:59:55.640Z,5.30
2019-02-27T05:00:59.158Z,5.30
2019-02-27T05:01:55.665Z,5.24
2019-02-27T05:02:55.687Z,5.28
2019-02-27T05:03:55.687Z,5.24
2019-02-27T05:04:55.705Z,5.28
2019-02-27T05:05:55.709Z,5.27
2019-02-27T05:06:55.719Z,5.24
2019-02-27T05:07:55.730Z,5.27
2019-02-27T05:08:59.809Z,5.25
2019-02-27T05:09:55.750Z,5.18
2019-02-27T05:10:55.763Z,5.15
2019-02-27T05:11:55.768Z,5.25
2019-02-27T05:12:55.791Z,5.21
2019-02-27T05:13:55.791Z,5.24
2019-02-27T05:14:55.804Z,5.24
2019-02-27T05:15:55.814Z,5.36
2019-02-27T05:16:55.826Z,5.24
2019-02-27T05:17:56.300Z,5.20
2019-02-27T05:18:55.842Z,5.27
2019-02-27T05:19:55.855Z,5.24
2019-02-27T05:20:55.869Z,5.28
2019-02-27T05:21:55.879Z,5.22
2019-02-27T05:23:00.097Z,5.24
2019-02-27T05:23:55.926Z,5.24
2019-02-27T05:24:55.915Z,5.12
2019-02-27T05:25:56.376Z,5.20
2019-02-27T05:26:58.128Z,5.10
2019-02-27T05:27:55.941Z,5.12
2019-02-27T05:28:55.962Z,5.15
2019-02-27T05:29:55.961Z,5.09
2019-02-27T05:30:55.982Z,5.04
2019-02-27T05:31:55.991Z,5.04
2019-02-27T05:32:55.999Z,5.02
2019-02-27T05:33:56.010Z,5.06
2019-02-27T05:34:56.019Z,5.04
2019-02-27T05:35:57.322Z,5.06
2019-02-27T05:36:56.043Z,5.00
2019-02-27T05:37:56.053Z,5.07
2019-02-27T05:38:56.060Z,5.07
2019-02-27T05:39:56.087Z,5.06
2019-02-27T05:40:59.818Z,5.06
2019-02-27T05:41:56.090Z,4.99
2019-02-27T05:42:56.105Z,4.97
2019-02-27T05:43:56.112Z,5.00
2019-02-27T05:44:56.722Z,4.88
2019-02-27T05:45:56.160Z,4.97
2019-02-27T05:46:56.152Z,4.92
2019-02-27T05:47:56.167Z,4.86
2019-02-27T05:48:56.163Z,4.85
2019-02-27T05:49:57.967Z,4.91
2019-02-27T05:50:56.416Z,4.97
2019-02-27T05:51:56.196Z,4.94
2019-02-27T05:52:56.209Z,4.96
2019-02-27T05:53:58.495Z,4.97
2019-02-27T05:54:56.488Z,4.96
2019-02-27T05:55:56.237Z,4.96
2019-02-27T05:56:56.249Z,4.96
2019-02-27T05:57:56.282Z,4.97
2019-02-27T05:58:56.841Z,5.00
2019-02-27T05:59:56.282Z,5.00
2019-02-27T06:00:56.309Z,4.96
2019-02-27T06:02:56.934Z,5.04
2019-02-27T06:03:56.743Z,5.06
2019-02-27T06:04:59.156Z,4.99
2019-02-27T06:05:56.347Z,4.96
2019-02-27T06:06:56.453Z,4.96
2019-02-27T06:07:56.367Z,4.96
2019-02-27T06:08:56.377Z,5.02
2019-02-27T06:09:56.469Z,5.02
2019-02-27T06:10:56.416Z,5.06
2019-02-27T06:11:56.639Z,5.06
2019-02-27T06:12:56.474Z,5.12
2019-02-27T06:13:56.426Z,5.17
2019-02-27T06:14:56.485Z,5.27
2019-02-27T06:15:56.454Z,5.25
2019-02-27T06:16:56.457Z,5.27
2019-02-27T06:17:56.476Z,5.30
2019-02-27T06:18:56.975Z,5.31
2019-02-27T06:19:56.500Z,5.30
2019-02-27T06:20:56.574Z,5.22
2019-02-27T06:21:56.924Z,5.22
2019-02-27T06:22:56.533Z,5.20
2019-02-27T06:23:56.542Z,5.20
2019-02-27T06:24:56.635Z,5.20
2019-02-27T06:25:59.380Z,5.15
2019-02-27T06:26:56.564Z,5.13
2019-02-27T06:27:56.576Z,5.15
2019-02-27T06:28:56.585Z,5.21
2019-02-27T06:29:57.035Z,5.20
2019-02-27T06:30:56.611Z,5.20
2019-02-27T06:31:56.622Z,5.27
2019-02-27T06:32:56.680Z,5.25
2019-02-27T06:33:56.639Z,5.28
2019-02-27T06:34:59.098Z,5.27
2019-02-27T06:35:56.663Z,5.28
2019-02-27T06:36:56.676Z,5.21
2019-02-27T06:37:56.684Z,5.10
2019-02-27T06:39:00.087Z,5.07
2019-02-27T06:39:56.712Z,5.06
2019-02-27T06:40:56.718Z,5.10
2019-02-27T06:41:56.738Z,5.10
2019-02-27T06:42:56.956Z,5.10
2019-02-27T06:43:58.926Z,5.10
2019-02-27T06:44:56.765Z,5.06
2019-02-27T06:45:56.777Z,5.15
2019-02-27T06:46:56.784Z,5.20
2019-02-27T06:47:56.786Z,5.17
2019-02-27T06:48:56.802Z,5.12
2019-02-27T06:49:56.817Z,5.10
2019-02-27T06:50:58.335Z,5.02
2019-02-27T06:51:56.833Z,5.03
2019-02-27T06:52:56.865Z,5.00
2019-02-27T06:53:56.851Z,5.04
2019-02-27T06:54:56.862Z,5.02
2019-02-27T06:55:56.905Z,4.97
2019-02-27T06:56:56.922Z,4.99
2019-02-27T06:57:56.893Z,5.06
2019-02-27T06:58:56.907Z,4.96
2019-02-27T06:59:57.490Z,5.04
2019-02-27T07:00:56.927Z,5.03
2019-02-27T07:01:56.939Z,5.04
2019-02-27T07:02:56.945Z,5.06
2019-02-27T07:03:57.046Z,5.04
2019-02-27T07:04:57.113Z,5.12
2019-02-27T07:05:56.975Z,5.17
2019-02-27T07:06:57.057Z,5.25
2019-02-27T07:07:57.001Z,5.20
2019-02-27T07:08:57.015Z,5.22
2019-02-27T07:09:57.033Z,5.33
2019-02-27T07:10:58.932Z,5.24
2019-02-27T07:11:57.052Z,5.30
2019-02-27T07:12:57.059Z,5.28
2019-02-27T07:13:57.067Z,5.18
2019-02-27T07:14:57.078Z,5.17
2019-02-27T07:15:57.151Z,5.12
2019-02-27T07:16:57.830Z,5.20
2019-02-27T07:17:57.111Z,5.22
2019-02-27T07:18:57.125Z,5.25
2019-02-27T07:19:57.127Z,5.30
2019-02-27T07:20:58.491Z,5.33
2019-02-27T07:21:57.509Z,5.30
2019-02-27T07:22:57.469Z,5.31
2019-02-27T07:23:58.539Z,5.39
2019-02-27T07:24:57.426Z,5.42
2019-02-27T07:25:57.187Z,5.42
2019-02-27T07:26:57.225Z,5.49
2019-02-27T07:27:57.224Z,5.53
2019-02-27T07:28:57.217Z,5.57
2019-02-27T07:29:57.229Z,5.58
2019-02-27T07:30:57.245Z,5.54
2019-02-27T07:31:57.302Z,5.53
2019-02-27T07:32:57.263Z,5.58
2019-02-27T07:33:57.273Z,5.61
2019-02-27T07:34:57.311Z,5.60
2019-02-27T07:35:57.305Z,5.61
2019-02-27T07:37:57.313Z,5.58
2019-02-27T07:38:58.275Z,5.67
2019-02-27T07:39:57.338Z,5.72
2019-02-27T07:40:57.412Z,5.74
2019-02-27T07:41:57.365Z,5.74
2019-02-27T07:42:57.372Z,5.81
2019-02-27T07:43:57.383Z,5.85
2019-02-27T07:44:57.398Z,5.86
2019-02-27T07:45:57.404Z,5.97
2019-02-27T07:46:58.077Z,5.99
2019-02-27T07:47:57.422Z,5.99
2019-02-27T07:48:57.445Z,5.94
2019-02-27T07:49:57.450Z,5.97
2019-02-27T07:50:58.207Z,6.06
2019-02-27T07:51:58.065Z,6.12
2019-02-27T07:52:57.484Z,6.14
2019-02-27T07:53:57.498Z,6.21
2019-02-27T07:54:57.502Z,6.25
2019-02-27T07:55:57.523Z,6.30
2019-02-27T07:56:57.533Z,6.33
2019-02-27T07:58:57.589Z,6.40
2019-02-27T07:59:57.565Z,6.40
2019-02-27T08:00:58.611Z,6.33
2019-02-27T08:02:02.296Z,6.49
2019-02-27T08:02:57.588Z,6.43
2019-02-27T08:03:57.616Z,6.38
2019-02-27T08:04:57.611Z,6.51
2019-02-27T08:05:59.875Z,6.52
2019-02-27T08:06:57.647Z,6.56
2019-02-27T08:07:57.656Z,6.64
2019-02-27T08:08:57.831Z,6.80
2019-02-27T08:09:57.668Z,6.74
2019-02-27T08:10:57.681Z,6.91
2019-02-27T08:11:57.691Z,6.85
2019-02-27T08:12:57.720Z,6.99
2019-02-27T08:13:57.722Z,6.99
2019-02-27T08:14:57.725Z,6.99
2019-02-27T08:15:58.096Z,7.09
2019-02-27T08:16:58.188Z,7.16
2019-02-27T08:17:58.638Z,7.15
2019-02-27T08:18:57.788Z,7.07
2019-02-27T08:19:57.810Z,7.12
2019-02-27T08:20:57.798Z,7.10
2019-02-27T08:21:58.706Z,7.13
2019-02-27T08:22:58.003Z,7.24
2019-02-27T08:23:57.830Z,7.32
2019-02-27T08:24:57.949Z,7.31
2019-02-27T08:25:57.913Z,7.39
2019-02-27T08:26:57.873Z,7.42
2019-02-27T08:27:57.887Z,7.45
2019-02-27T08:28:57.912Z,7.55
2019-02-27T08:29:59.758Z,7.55
2019-02-27T08:30:57.917Z,7.58
2019-02-27T08:32:00.704Z,7.61
2019-02-27T08:32:57.964Z,7.63
2019-02-27T08:33:58.046Z,7.58
2019-02-27T08:34:57.952Z,7.64
2019-02-27T08:35:57.965Z,7.79
2019-02-27T08:36:57.997Z,7.82
2019-02-27T08:38:02.577Z,7.82
2019-02-27T08:38:58.003Z,7.89
2019-02-27T08:39:58.014Z,7.97
2019-02-27T08:40:58.552Z,7.92
2019-02-27T08:41:58.066Z,7.95
2019-02-27T08:43:58.060Z,8.01
2019-02-27T08:44:58.074Z,8.01
2019-02-27T08:46:02.151Z,8.16
2019-02-27T08:46:58.098Z,8.16
2019-02-27T08:47:58.120Z,8.19
2019-02-27T08:48:58.380Z,8.19
2019-02-27T08:49:58.649Z,8.19
2019-02-27T08:50:58.147Z,8.18
2019-02-27T08:51:58.158Z,8.25
2019-02-27T08:52:58.176Z,8.28
2019-02-27T08:53:59.250Z,8.34
2019-02-27T08:54:58.192Z,8.41
2019-02-27T08:55:58.214Z,8.40
2019-02-27T08:56:58.236Z,8.50
2019-02-27T08:57:58.241Z,8.47
2019-02-27T08:58:58.242Z,8.53
2019-02-27T08:59:58.249Z,8.58
2019-02-27T09:00:58.260Z,8.63
2019-02-27T09:01:58.277Z,8.73
2019-02-27T09:03:02.419Z,8.70
2019-02-27T09:03:59.288Z,8.71
2019-02-27T09:04:58.334Z,8.77
2019-02-27T09:05:58.328Z,8.79
2019-02-27T09:07:02.318Z,8.91
2019-02-27T09:07:58.351Z,8.94
2019-02-27T09:08:58.359Z,8.95
2019-02-27T09:09:58.395Z,8.99
2019-02-27T09:10:58.380Z,9.08
2019-02-27T09:11:58.394Z,9.11
2019-02-27T09:13:05.397Z,9.10
2019-02-27T09:13:58.416Z,9.17
2019-02-27T09:14:58.435Z,9.23
2019-02-27T09:15:58.443Z,9.29
2019-02-27T09:16:58.457Z,9.40
2019-02-27T09:17:59.188Z,9.40
2019-02-27T09:18:58.483Z,9.42
2019-02-27T09:19:58.524Z,9.38
2019-02-27T09:20:58.509Z,9.56
2019-02-27T09:21:59.934Z,9.64
2019-02-27T09:22:58.531Z,9.58
2019-02-27T09:23:58.558Z,9.56
2019-02-27T09:24:58.566Z,9.74
2019-02-27T09:26:02.436Z,9.75
2019-02-27T09:26:58.581Z,9.81
2019-02-27T09:27:58.591Z,9.84
2019-02-27T09:28:58.612Z,9.90
2019-02-27T09:29:58.639Z,9.94
2019-02-27T09:31:03.172Z,9.91
2019-02-27T09:31:58.643Z,10.05
2019-02-27T09:32:58.656Z,10.04
2019-02-27T09:33:58.668Z,10.18
2019-02-27T09:34:59.622Z,10.22
2019-02-27T09:35:58.693Z,10.27
2019-02-27T09:36:58.707Z,10.29
2019-02-27T09:37:58.884Z,10.33
2019-02-27T09:38:58.801Z,10.40
2019-02-27T09:39:58.739Z,10.47
2019-02-27T09:40:58.759Z,10.52
2019-02-27T09:41:58.769Z,10.47
2019-02-27T09:42:58.785Z,10.52
2019-02-27T09:44:01.381Z,10.66
2019-02-27T09:44:59.752Z,10.64
2019-02-27T09:45:58.975Z,10.68
2019-02-27T09:46:58.855Z,10.70
2019-02-27T09:47:59.927Z,10.79
2019-02-27T09:48:58.852Z,10.86
2019-02-27T09:49:58.949Z,10.96
2019-02-27T09:50:58.883Z,11.03
2019-02-27T09:51:58.888Z,11.10
2019-02-27T09:53:01.130Z,11.24
2019-02-27T09:53:58.925Z,11.29
2019-02-27T09:54:59.028Z,11.40
2019-02-27T09:55:58.944Z,11.51
2019-02-27T09:57:02.055Z,11.55
2019-02-27T09:57:58.983Z,11.60
2019-02-27T09:58:58.997Z,11.69
2019-02-27T09:59:59.048Z,11.75
2019-02-27T10:01:00.270Z,11.90
2019-02-27T10:01:59.038Z,11.94
2019-02-27T10:02:59.039Z,11.95
2019-02-27T10:03:59.045Z,12.07
2019-02-27T10:05:03.096Z,12.07
2019-02-27T10:05:59.069Z,12.17
2019-02-27T10:06:59.089Z,12.23
2019-02-27T10:07:59.103Z,12.23
2019-02-27T10:08:59.748Z,12.29
2019-02-27T10:09:59.130Z,12.35
2019-02-27T10:10:59.249Z,12.37
2019-02-27T10:11:59.172Z,12.45
2019-02-27T10:12:59.926Z,12.47
2019-02-27T10:13:59.189Z,12.62
2019-02-27T10:14:59.221Z,12.74
2019-02-27T10:16:01.321Z,12.75
2019-02-27T10:16:59.226Z,12.90
2019-02-27T10:17:59.259Z,12.87
2019-02-27T10:18:59.463Z,12.87
2019-02-27T10:20:02.526Z,12.90
2019-02-27T10:20:59.748Z,13.00
2019-02-27T10:21:59.281Z,13.04
2019-02-27T10:22:59.301Z,13.12
2019-02-27T10:23:59.310Z,13.17
2019-02-27T10:24:59.324Z,13.19
2019-02-27T10:25:59.348Z,13.25
2019-02-27T10:26:59.347Z,13.42
2019-02-27T10:28:03.261Z,13.44
2019-02-27T10:28:59.375Z,13.45
2019-02-27T10:30:59.410Z,13.63
2019-02-27T10:32:00.719Z,13.70
2019-02-27T10:32:59.446Z,13.70
2019-02-27T10:34:00.436Z,13.81
2019-02-27T10:34:59.458Z,13.91
2019-02-27T10:36:03.028Z,13.89
2019-02-27T10:36:59.522Z,13.97
2019-02-27T10:37:59.503Z,14.00
2019-02-27T10:39:02.078Z,14.04
2019-02-27T10:40:00.527Z,14.15
2019-02-27T10:40:59.540Z,14.20
2019-02-27T10:41:59.560Z,14.29
2019-02-27T10:42:59.595Z,14.37
2019-02-27T10:43:59.670Z,14.50
2019-02-27T10:44:59.592Z,14.54
2019-02-27T10:46:00.259Z,14.52
2019-02-27T10:47:00.647Z,14.58
2019-02-27T10:47:59.648Z,14.64
2019-02-27T10:48:59.643Z,14.60
2019-02-27T10:50:02.139Z,14.57
2019-02-27T10:51:00.223Z,14.75
2019-02-27T10:51:59.706Z,14.70
2019-02-27T10:52:59.704Z,14.75
2019-02-27T10:54:03.007Z,14.75
2019-02-27T10:54:59.727Z,14.84
2019-02-27T10:55:59.748Z,14.92
2019-02-27T10:56:59.755Z,14.98
2019-02-27T10:57:59.782Z,15.02
2019-02-27T10:58:59.786Z,15.13
2019-02-27T10:59:59.826Z,15.21
2019-02-27T11:01:01.227Z,15.21
2019-02-27T11:01:59.999Z,15.28
2019-02-27T11:02:59.846Z,15.35
2019-02-27T11:04:00.494Z,15.38
2019-02-27T11:04:59.866Z,15.38
2019-02-27T11:05:59.881Z,15.49
2019-02-27T11:06:59.897Z,15.43
2019-02-27T11:07:59.915Z,15.49
2019-02-27T11:09:04.395Z,15.53
2019-02-27T11:09:59.941Z,15.68
2019-02-27T11:11:00.123Z,15.64
2019-02-27T11:11:59.979Z,15.71
2019-02-27T11:12:59.989Z,15.62
2019-02-27T11:13:59.997Z,15.71
2019-02-27T11:15:01.696Z,15.71
2019-02-27T11:16:00.020Z,15.68
2019-02-27T11:17:02.564Z,15.64
2019-02-27T11:18:04.451Z,15.78
2019-02-27T11:20:00.195Z,15.74
2019-02-27T11:21:02.200Z,15.75
2019-02-27T11:22:00.272Z,15.82
2019-02-27T11:23:00.133Z,15.86
2019-02-27T11:24:00.133Z,15.83
2019-02-27T11:25:00.229Z,15.93
2019-02-27T11:26:00.174Z,15.97
2019-02-27T11:27:00.195Z,16.05
2019-02-27T11:28:00.486Z,16.21
2019-02-27T11:29:00.211Z,16.15
2019-02-27T11:30:02.893Z,16.14
2019-02-27T11:31:00.540Z,16.15
2019-02-27T11:32:00.246Z,16.21
2019-02-27T11:33:00.278Z,16.20
2019-02-27T11:34:01.144Z,16.17
2019-02-27T11:35:00.348Z,16.23
2019-02-27T11:36:00.327Z,16.25
2019-02-27T11:37:00.317Z,16.38
2019-02-27T11:38:00.329Z,16.31
2019-02-27T11:39:00.339Z,16.50
2019-02-27T11:40:00.437Z,16.50
2019-02-27T11:41:00.421Z,16.63
2019-02-27T11:42:00.606Z,16.64
2019-02-27T11:43:01.076Z,16.63
2019-02-27T11:44:00.424Z,16.61
2019-02-27T11:45:00.638Z,16.60
2019-02-27T11:46:00.442Z,16.52
2019-02-27T11:47:00.464Z,16.66
2019-02-27T11:48:01.364Z,16.67
2019-02-27T11:49:03.056Z,16.63
2019-02-27T11:50:00.502Z,16.70
2019-02-27T11:51:00.806Z,16.70
2019-02-27T11:52:00.527Z,16.79
2019-02-27T11:53:03.124Z,16.78
2019-02-27T11:54:00.587Z,16.83
2019-02-27T11:55:01.587Z,16.83
2019-02-27T11:56:00.606Z,16.79
2019-02-27T11:57:00.611Z,16.83
2019-02-27T11:58:04.575Z,16.96
2019-02-27T11:59:00.629Z,16.93
2019-02-27T12:00:00.639Z,16.91
2019-02-27T12:01:01.181Z,16.93
2019-02-27T12:02:00.680Z,16.97
2019-02-27T12:03:00.683Z,16.88
2019-02-27T12:04:01.278Z,16.93
2019-02-27T12:05:00.818Z,17.00
2019-02-27T12:06:00.736Z,17.03
2019-02-27T12:07:00.738Z,17.06
2019-02-27T12:08:00.757Z,17.11
2019-02-27T12:09:00.798Z,17.06
2019-02-27T12:10:00.801Z,17.21
2019-02-27T12:11:01.102Z,17.22
2019-02-27T12:12:00.830Z,17.43
2019-02-27T12:13:01.331Z,17.43
2019-02-27T12:14:00.894Z,17.44
2019-02-27T12:15:00.858Z,17.46
2019-02-27T12:16:01.387Z,17.51
2019-02-27T12:17:00.890Z,17.51
2019-02-27T12:18:01.700Z,17.59
2019-02-27T12:19:00.940Z,17.62
2019-02-27T12:20:00.930Z,17.56
2019-02-27T12:21:00.954Z,17.63
2019-02-27T12:22:00.956Z,17.54
2019-02-27T12:23:01.005Z,17.46
2019-02-27T12:24:01.046Z,17.55
2019-02-27T12:25:01.004Z,17.64
2019-02-27T12:26:02.447Z,17.59
2019-02-27T12:27:01.028Z,17.71
2019-02-27T12:28:01.045Z,17.75
2019-02-27T12:29:01.076Z,17.68
2019-02-27T12:30:03.092Z,17.78
2019-02-27T12:31:01.090Z,17.75
2019-02-27T12:32:01.104Z,17.75
2019-02-27T12:33:01.119Z,17.77
2019-02-27T12:34:03.265Z,17.78
2019-02-27T12:35:03.098Z,17.87
2019-02-27T12:36:01.161Z,17.75
2019-02-27T12:37:01.195Z,17.87
2019-02-27T12:38:01.192Z,17.87
2019-02-27T12:39:01.203Z,17.86
2019-02-27T12:40:01.226Z,17.93
2019-02-27T12:41:01.235Z,17.93
2019-02-27T12:42:01.268Z,17.96
2019-02-27T12:43:01.406Z,17.93
2019-02-27T12:44:01.277Z,17.89
2019-02-27T12:45:01.314Z,17.86
2019-02-27T12:46:01.709Z,17.89
2019-02-27T12:47:01.324Z,17.95
2019-02-27T12:48:01.348Z,18.00
2019-02-27T12:49:01.346Z,17.92
2019-02-27T12:50:01.379Z,17.92
2019-02-27T12:51:03.670Z,17.92
2019-02-27T12:52:01.390Z,17.92
2019-02-27T12:53:01.408Z,17.96
2019-02-27T12:54:01.418Z,18.02
2019-02-27T12:55:01.905Z,18.03
2019-02-27T12:56:01.450Z,18.08
2019-02-27T12:57:01.511Z,18.12
2019-02-27T12:58:01.553Z,18.14
2019-02-27T12:59:01.548Z,18.25
2019-02-27T13:00:01.517Z,18.17
2019-02-27T13:01:01.530Z,18.17
2019-02-27T13:02:08.080Z,18.17
2019-02-27T13:03:01.558Z,18.23
2019-02-27T13:04:01.588Z,18.23
2019-02-27T13:06:01.699Z,18.23
2019-02-27T13:07:01.617Z,18.23
2019-02-27T13:08:01.638Z,18.23
2019-02-27T13:09:01.647Z,18.20
2019-02-27T13:10:01.657Z,18.23
2019-02-27T13:11:01.694Z,18.26
2019-02-27T13:12:01.694Z,18.30
2019-02-27T13:13:01.716Z,18.29
2019-02-27T13:14:01.736Z,18.26
2019-02-27T13:15:06.647Z,18.29
2019-02-27T13:16:01.796Z,18.47
2019-02-27T13:17:01.767Z,18.44
2019-02-27T13:18:01.779Z,18.45